sensor_id;sensor_type;location;lat;lon;timestamp;temperature;humidity
8338;DHT22;4206;48.634;9.516;2023-03-01T00:00:54;-2.50;99.90
8338;DHT22;4206;48.634;9.516;2023-03-01T00:03:21;-2.50;99.90
8338;DHT22;4206;48.634;9.516;2023-03-01T00:05:48;-2.60;99.90
8338;DHT22;4206;48.634;9.516;2023-03-01T00:08:15;-2.70;99.90
8338;DHT22;4206;48.634;9.516;2023-03-01T00:10:42;-2.80;99.90
8338;DHT22;4206;48.634;9.516;2023-03-01T00:13:09;-2.80;99.90
8338;DHT22;4206;48.634;9.516;2023-03-01T00:15:39;-2.80;99.90
8338;DHT22;4206;48.634;9.516;2023-03-01T00:18:07;-3.00;99.90
8338;DHT22;4206;48.634;9.516;2023-03-01T00:20:35;-3.00;99.90
8338;DHT22;4206;48.634;9.516;2023-03-01T00:23:02;-2.90;99.90
8338;DHT22;4206;48.634;9.516;2023-03-01T00:25:29;-2.90;99.90
8338;DHT22;4206;48.634;9.516;2023-03-01T00:27:56;-2.70;99.90
8338;DHT22;4206;48.634;9.516;2023-03-01T00:30:23;-2.80;99.90
8338;DHT22;4206;48.634;9.516;2023-03-01T00:32:50;-2.90;99.90
8338;DHT22;4206;48.634;9.516;2023-03-01T00:35:17;-2.90;99.90
8338;DHT22;4206;48.634;9.516;2023-03-01T00:37:44;-3.10;99.90
8338;DHT22;4206;48.634;9.516;2023-03-01T00:40:11;-3.20;99.90
8338;DHT22;4206;48.634;9.516;2023-03-01T00:42:38;-3.40;99.90
8338;DHT22;4206;48.634;9.516;2023-03-01T00:45:06;-3.30;99.90
8338;DHT22;4206;48.634;9.516;2023-03-01T00:47:34;-3.30;99.90
8338;DHT22;4206;48.634;9.516;2023-03-01T00:50:01;-3.40;99.90
8338;DHT22;4206;48.634;9.516;2023-03-01T00:52:28;-3.40;99.90
8338;DHT22;4206;48.634;9.516;2023-03-01T00:54:55;-3.50;99.90
8338;DHT22;4206;48.634;9.516;2023-03-01T00:57:22;-3.50;99.90
8338;DHT22;4206;48.634;9.516;2023-03-01T00:59:49;-3.50;99.90
8338;DHT22;4206;48.634;9.516;2023-03-01T01:02:16;-3.50;99.90
8338;DHT22;4206;48.634;9.516;2023-03-01T01:04:43;-3.40;99.90
8338;DHT22;4206;48.634;9.516;2023-03-01T01:07:09;-3.40;99.90
8338;DHT22;4206;48.634;9.516;2023-03-01T01:09:36;-3.40;99.90
8338;DHT22;4206;48.634;9.516;2023-03-01T01:12:04;-3.40;99.90
8338;DHT22;4206;48.634;9.516;2023-03-01T01:14:31;-3.50;99.90
8338;DHT22;4206;48.634;9.516;2023-03-01T01:16:58;-3.50;99.90
8338;DHT22;4206;48.634;9.516;2023-03-01T01:19:26;-3.50;99.90
8338;DHT22;4206;48.634;9.516;2023-03-01T01:21:53;-3.50;99.90
8338;DHT22;4206;48.634;9.516;2023-03-01T01:24:20;-3.30;99.90
8338;DHT22;4206;48.634;9.516;2023-03-01T01:26:47;-3.20;99.90
8338;DHT22;4206;48.634;9.516;2023-03-01T01:29:14;-3.10;99.90
8338;DHT22;4206;48.634;9.516;2023-03-01T01:31:42;-3.00;99.90
8338;DHT22;4206;48.634;9.516;2023-03-01T01:34:15;-2.80;99.90
8338;DHT22;4206;48.634;9.516;2023-03-01T01:36:43;-2.70;99.90
8338;DHT22;4206;48.634;9.516;2023-03-01T01:39:10;-2.60;99.90
8338;DHT22;4206;48.634;9.516;2023-03-01T01:41:41;-2.50;99.90
8338;DHT22;4206;48.634;9.516;2023-03-01T01:46:40;-2.30;99.90
8338;DHT22;4206;48.634;9.516;2023-03-01T01:51:47;-2.20;99.90
8338;DHT22;4206;48.634;9.516;2023-03-01T01:54:19;-2.10;99.90
8338;DHT22;4206;48.634;9.516;2023-03-01T01:56:52;-2.00;99.90
8338;DHT22;4206;48.634;9.516;2023-03-01T01:59:20;-2.00;99.90
8338;DHT22;4206;48.634;9.516;2023-03-01T02:01:52;-2.00;99.90
8338;DHT22;4206;48.634;9.516;2023-03-01T02:04:20;-1.90;99.90
8338;DHT22;4206;48.634;9.516;2023-03-01T02:06:54;-1.90;99.90
8338;DHT22;4206;48.634;9.516;2023-03-01T02:09:25;-1.90;99.90
8338;DHT22;4206;48.634;9.516;2023-03-01T02:11:53;-1.90;99.90
8338;DHT22;4206;48.634;9.516;2023-03-01T02:14:21;-1.90;99.90
8338;DHT22;4206;48.634;9.516;2023-03-01T02:16:48;-1.80;99.90
8338;DHT22;4206;48.634;9.516;2023-03-01T02:19:28;-1.80;99.90
8338;DHT22;4206;48.634;9.516;2023-03-01T02:24:32;-1.90;99.90
8338;DHT22;4206;48.634;9.516;2023-03-01T02:27:02;-1.80;99.90
8338;DHT22;4206;48.634;9.516;2023-03-01T02:29:30;-1.80;99.90
8338;DHT22;4206;48.634;9.516;2023-03-01T02:31:59;-1.60;99.90
8338;DHT22;4206;48.634;9.516;2023-03-01T02:34:28;-1.80;99.90
8338;DHT22;4206;48.634;9.516;2023-03-01T02:37:00;-1.90;99.90
8338;DHT22;4206;48.634;9.516;2023-03-01T02:39:35;-1.70;99.90
8338;DHT22;4206;48.634;9.516;2023-03-01T02:42:04;-1.70;99.90
8338;DHT22;4206;48.634;9.516;2023-03-01T02:44:32;-1.80;99.90
8338;DHT22;4206;48.634;9.516;2023-03-01T02:47:02;-1.70;99.90
8338;DHT22;4206;48.634;9.516;2023-03-01T02:49:32;-1.60;99.90
8338;DHT22;4206;48.634;9.516;2023-03-01T02:55:01;-1.50;99.90
8338;DHT22;4206;48.634;9.516;2023-03-01T02:57:30;-1.50;99.90
8338;DHT22;4206;48.634;9.516;2023-03-01T03:00:02;-1.50;99.90
8338;DHT22;4206;48.634;9.516;2023-03-01T03:02:34;-1.40;99.90
8338;DHT22;4206;48.634;9.516;2023-03-01T03:05:07;-1.50;99.90
8338;DHT22;4206;48.634;9.516;2023-03-01T03:07:36;-1.50;99.90
8338;DHT22;4206;48.634;9.516;2023-03-01T03:10:05;-1.50;99.90
8338;DHT22;4206;48.634;9.516;2023-03-01T03:12:32;-1.50;99.90
8338;DHT22;4206;48.634;9.516;2023-03-01T03:15:00;-1.40;99.90
8338;DHT22;4206;48.634;9.516;2023-03-01T03:17:26;-1.50;99.90
8338;DHT22;4206;48.634;9.516;2023-03-01T03:19:53;-1.40;99.90
8338;DHT22;4206;48.634;9.516;2023-03-01T03:22:20;-1.40;99.90
8338;DHT22;4206;48.634;9.516;2023-03-01T03:24:47;-1.30;99.90
8338;DHT22;4206;48.634;9.516;2023-03-01T03:27:14;-1.50;99.90
8338;DHT22;4206;48.634;9.516;2023-03-01T03:29:41;-1.40;99.90
8338;DHT22;4206;48.634;9.516;2023-03-01T03:32:07;-1.30;99.90
8338;DHT22;4206;48.634;9.516;2023-03-01T03:34:34;-1.30;99.90
8338;DHT22;4206;48.634;9.516;2023-03-01T03:37:01;-1.30;99.90
8338;DHT22;4206;48.634;9.516;2023-03-01T03:39:28;-1.30;99.90
8338;DHT22;4206;48.634;9.516;2023-03-01T03:41:55;-1.30;99.90
8338;DHT22;4206;48.634;9.516;2023-03-01T03:44:22;-1.30;99.90
8338;DHT22;4206;48.634;9.516;2023-03-01T03:46:48;-1.30;99.90
8338;DHT22;4206;48.634;9.516;2023-03-01T03:49:15;-1.30;99.90
8338;DHT22;4206;48.634;9.516;2023-03-01T03:51:42;-1.20;99.90
8338;DHT22;4206;48.634;9.516;2023-03-01T03:54:11;-1.20;99.90
8338;DHT22;4206;48.634;9.516;2023-03-01T03:56:38;-1.20;99.90
8338;DHT22;4206;48.634;9.516;2023-03-01T03:59:06;-1.20;99.90
8338;DHT22;4206;48.634;9.516;2023-03-01T05:02:08;-1.00;99.90
8338;DHT22;4206;48.634;9.516;2023-03-01T05:04:35;-1.00;99.90
8338;DHT22;4206;48.634;9.516;2023-03-01T05:07:02;-1.00;99.90
8338;DHT22;4206;48.634;9.516;2023-03-01T05:09:29;-1.00;99.90
8338;DHT22;4206;48.634;9.516;2023-03-01T05:11:56;-1.00;99.90
8338;DHT22;4206;48.634;9.516;2023-03-01T05:14:23;-1.00;99.90
8338;DHT22;4206;48.634;9.516;2023-03-01T05:16:50;-1.00;99.90
8338;DHT22;4206;48.634;9.516;2023-03-01T05:19:17;-1.00;99.90
8338;DHT22;4206;48.634;9.516;2023-03-01T05:21:49;-0.90;99.90
8338;DHT22;4206;48.634;9.516;2023-03-01T05:24:34;-0.90;99.90
8338;DHT22;4206;48.634;9.516;2023-03-01T05:27:02;-1.00;99.90
8338;DHT22;4206;48.634;9.516;2023-03-01T05:29:31;-0.90;99.90
8338;DHT22;4206;48.634;9.516;2023-03-01T05:31:59;-0.90;99.90
8338;DHT22;4206;48.634;9.516;2023-03-01T05:34:30;-0.90;99.90
8338;DHT22;4206;48.634;9.516;2023-03-01T05:36:58;-0.90;99.90
8338;DHT22;4206;48.634;9.516;2023-03-01T05:39:27;-0.80;99.90
8338;DHT22;4206;48.634;9.516;2023-03-01T05:41:57;-0.90;99.90
8338;DHT22;4206;48.634;9.516;2023-03-01T05:44:25;-0.90;99.90
8338;DHT22;4206;48.634;9.516;2023-03-01T05:46:52;-0.90;99.90
8338;DHT22;4206;48.634;9.516;2023-03-01T05:49:19;-0.80;99.90
8338;DHT22;4206;48.634;9.516;2023-03-01T05:51:51;-0.80;99.90
8338;DHT22;4206;48.634;9.516;2023-03-01T05:54:20;-0.80;99.90
8338;DHT22;4206;48.634;9.516;2023-03-01T05:56:47;-0.90;99.90
8338;DHT22;4206;48.634;9.516;2023-03-01T05:59:14;-0.90;99.90
8338;DHT22;4206;48.634;9.516;2023-03-01T06:01:42;-1.00;99.90
8338;DHT22;4206;48.634;9.516;2023-03-01T06:04:10;-1.10;99.90
8338;DHT22;4206;48.634;9.516;2023-03-01T06:06:37;-1.20;99.90
8338;DHT22;4206;48.634;9.516;2023-03-01T06:09:06;-1.30;99.90
8338;DHT22;4206;48.634;9.516;2023-03-01T06:11:37;-1.30;99.90
8338;DHT22;4206;48.634;9.516;2023-03-01T06:14:06;-1.40;99.90
8338;DHT22;4206;48.634;9.516;2023-03-01T06:16:34;-1.60;99.90
8338;DHT22;4206;48.634;9.516;2023-03-01T06:19:01;-1.60;99.90
8338;DHT22;4206;48.634;9.516;2023-03-01T06:21:28;-1.60;99.90
8338;DHT22;4206;48.634;9.516;2023-03-01T06:23:54;-1.70;99.90
8338;DHT22;4206;48.634;9.516;2023-03-01T06:26:21;-1.70;99.90
8338;DHT22;4206;48.634;9.516;2023-03-01T06:28:48;-1.70;99.90
8338;DHT22;4206;48.634;9.516;2023-03-01T06:31:15;-1.70;99.90
8338;DHT22;4206;48.634;9.516;2023-03-01T06:33:42;-1.70;99.90
8338;DHT22;4206;48.634;9.516;2023-03-01T06:36:11;-1.60;99.90
8338;DHT22;4206;48.634;9.516;2023-03-01T06:38:38;-1.60;99.90
8338;DHT22;4206;48.634;9.516;2023-03-01T06:41:07;-1.60;99.90
8338;DHT22;4206;48.634;9.516;2023-03-01T06:43:34;-1.50;99.90
8338;DHT22;4206;48.634;9.516;2023-03-01T06:46:04;-1.40;99.90
8338;DHT22;4206;48.634;9.516;2023-03-01T06:48:32;-1.40;99.90
8338;DHT22;4206;48.634;9.516;2023-03-01T06:51:00;-1.30;99.90
8338;DHT22;4206;48.634;9.516;2023-03-01T06:53:28;-1.10;99.90
8338;DHT22;4206;48.634;9.516;2023-03-01T06:55:56;-1.10;99.90
8338;DHT22;4206;48.634;9.516;2023-03-01T06:58:24;-0.90;99.90
8338;DHT22;4206;48.634;9.516;2023-03-01T07:00:51;-0.80;99.90
8338;DHT22;4206;48.634;9.516;2023-03-01T07:03:18;-0.70;99.90
8338;DHT22;4206;48.634;9.516;2023-03-01T07:05:49;-0.50;99.90
8338;DHT22;4206;48.634;9.516;2023-03-01T07:08:22;-0.40;99.90
8338;DHT22;4206;48.634;9.516;2023-03-01T07:10:55;-0.10;99.90
8338;DHT22;4206;48.634;9.516;2023-03-01T07:13:22;-0.30;99.90
8338;DHT22;4206;48.634;9.516;2023-03-01T07:15:49;0.30;99.90
8338;DHT22;4206;48.634;9.516;2023-03-01T07:18:17;0.50;99.90
8338;DHT22;4206;48.634;9.516;2023-03-01T07:20:44;0.60;99.90
8338;DHT22;4206;48.634;9.516;2023-03-01T07:23:11;1.00;99.90
8338;DHT22;4206;48.634;9.516;2023-03-01T07:25:38;1.30;99.90
8338;DHT22;4206;48.634;9.516;2023-03-01T07:28:05;1.50;99.90
8338;DHT22;4206;48.634;9.516;2023-03-01T07:30:32;1.90;99.90
8338;DHT22;4206;48.634;9.516;2023-03-01T07:32:59;2.40;99.90
8338;DHT22;4206;48.634;9.516;2023-03-01T07:35:27;2.80;99.90
8338;DHT22;4206;48.634;9.516;2023-03-01T07:37:54;3.20;99.90
8338;DHT22;4206;48.634;9.516;2023-03-01T07:40:22;3.60;99.90
8338;DHT22;4206;48.634;9.516;2023-03-01T07:42:49;4.30;99.90
8338;DHT22;4206;48.634;9.516;2023-03-01T07:45:21;4.80;99.90
8338;DHT22;4206;48.634;9.516;2023-03-01T07:47:50;5.30;99.90
8338;DHT22;4206;48.634;9.516;2023-03-01T07:50:18;6.10;99.90
8338;DHT22;4206;48.634;9.516;2023-03-01T07:52:47;6.60;99.90
8338;DHT22;4206;48.634;9.516;2023-03-01T07:55:16;7.60;99.90
8338;DHT22;4206;48.634;9.516;2023-03-01T07:57:43;7.80;99.90
8338;DHT22;4206;48.634;9.516;2023-03-01T08:00:11;8.30;99.90
8338;DHT22;4206;48.634;9.516;2023-03-01T08:02:39;9.00;99.90
8338;DHT22;4206;48.634;9.516;2023-03-01T08:05:12;8.90;99.90
8338;DHT22;4206;48.634;9.516;2023-03-01T08:07:40;9.90;99.90
8338;DHT22;4206;48.634;9.516;2023-03-01T08:10:07;10.20;99.90
8338;DHT22;4206;48.634;9.516;2023-03-01T08:12:35;10.90;99.90
8338;DHT22;4206;48.634;9.516;2023-03-01T08:15:02;11.20;99.90
8338;DHT22;4206;48.634;9.516;2023-03-01T08:17:29;10.70;99.90
8338;DHT22;4206;48.634;9.516;2023-03-01T08:19:57;11.10;99.00
8338;DHT22;4206;48.634;9.516;2023-03-01T08:22:24;10.80;99.00
8338;DHT22;4206;48.634;9.516;2023-03-01T08:24:51;10.40;98.80
8338;DHT22;4206;48.634;9.516;2023-03-01T08:27:20;11.20;98.80
8338;DHT22;4206;48.634;9.516;2023-03-01T08:29:51;11.10;97.00
8338;DHT22;4206;48.634;9.516;2023-03-01T08:32:19;10.60;96.90
8338;DHT22;4206;48.634;9.516;2023-03-01T08:34:48;9.90;99.60
8338;DHT22;4206;48.634;9.516;2023-03-01T08:37:16;10.50;98.40
8338;DHT22;4206;48.634;9.516;2023-03-01T08:39:44;10.10;97.90
8338;DHT22;4206;48.634;9.516;2023-03-01T08:42:11;10.00;98.00
8338;DHT22;4206;48.634;9.516;2023-03-01T08:44:39;10.80;99.10
8338;DHT22;4206;48.634;9.516;2023-03-01T08:47:07;11.00;97.50
8338;DHT22;4206;48.634;9.516;2023-03-01T08:49:35;11.20;97.40
8338;DHT22;4206;48.634;9.516;2023-03-01T08:52:03;11.40;96.20
8338;DHT22;4206;48.634;9.516;2023-03-01T08:54:30;11.50;96.10
8338;DHT22;4206;48.634;9.516;2023-03-01T08:56:58;12.20;96.20
8338;DHT22;4206;48.634;9.516;2023-03-01T08:59:28;10.70;95.70
8338;DHT22;4206;48.634;9.516;2023-03-01T09:01:56;10.80;95.70
8338;DHT22;4206;48.634;9.516;2023-03-01T09:04:24;11.30;95.50
8338;DHT22;4206;48.634;9.516;2023-03-01T09:06:51;12.30;95.00
8338;DHT22;4206;48.634;9.516;2023-03-01T09:09:19;12.60;93.90
8338;DHT22;4206;48.634;9.516;2023-03-01T09:11:46;13.00;93.00
8338;DHT22;4206;48.634;9.516;2023-03-01T09:14:14;13.70;93.20
8338;DHT22;4206;48.634;9.516;2023-03-01T09:16:41;13.10;91.50
8338;DHT22;4206;48.634;9.516;2023-03-01T09:19:09;14.00;92.30
8338;DHT22;4206;48.634;9.516;2023-03-01T09:21:37;14.40;90.80
8338;DHT22;4206;48.634;9.516;2023-03-01T09:24:14;14.90;90.70
8338;DHT22;4206;48.634;9.516;2023-03-01T09:26:42;15.40;88.50
8338;DHT22;4206;48.634;9.516;2023-03-01T09:29:09;15.50;86.30
8338;DHT22;4206;48.634;9.516;2023-03-01T09:31:37;14.30;85.50
8338;DHT22;4206;48.634;9.516;2023-03-01T09:34:04;14.30;85.70
8338;DHT22;4206;48.634;9.516;2023-03-01T09:36:32;14.30;85.50
8338;DHT22;4206;48.634;9.516;2023-03-01T09:39:00;14.20;85.20
8338;DHT22;4206;48.634;9.516;2023-03-01T09:44:38;14.10;85.90
8338;DHT22;4206;48.634;9.516;2023-03-01T09:47:16;14.10;85.40
8338;DHT22;4206;48.634;9.516;2023-03-01T09:49:45;14.40;84.90
8338;DHT22;4206;48.634;9.516;2023-03-01T09:54:56;14.60;85.50
8338;DHT22;4206;48.634;9.516;2023-03-01T09:57:33;14.10;84.40
8338;DHT22;4206;48.634;9.516;2023-03-01T10:02:51;14.90;82.10
8338;DHT22;4206;48.634;9.516;2023-03-01T10:10:55;14.40;85.00
8338;DHT22;4206;48.634;9.516;2023-03-01T10:16:16;13.90;83.40
8338;DHT22;4206;48.634;9.516;2023-03-01T10:18:47;14.30;82.50
8338;DHT22;4206;48.634;9.516;2023-03-01T10:21:20;14.30;82.90
8338;DHT22;4206;48.634;9.516;2023-03-01T10:23:50;14.20;82.40
8338;DHT22;4206;48.634;9.516;2023-03-01T10:34:13;12.90;84.20
8338;DHT22;4206;48.634;9.516;2023-03-01T10:36:42;13.40;84.20
8338;DHT22;4206;48.634;9.516;2023-03-01T10:39:16;13.30;84.40
8338;DHT22;4206;48.634;9.516;2023-03-01T10:44:39;13.70;84.40
8338;DHT22;4206;48.634;9.516;2023-03-01T10:47:23;14.00;82.90
8338;DHT22;4206;48.634;9.516;2023-03-01T10:50:02;13.80;83.40
8338;DHT22;4206;48.634;9.516;2023-03-01T10:52:35;13.70;84.20
8338;DHT22;4206;48.634;9.516;2023-03-01T10:58:07;13.10;84.20
8338;DHT22;4206;48.634;9.516;2023-03-01T11:00:51;14.00;84.90
8338;DHT22;4206;48.634;9.516;2023-03-01T11:03:25;13.70;82.30
8338;DHT22;4206;48.634;9.516;2023-03-01T11:08:36;16.00;81.90
8338;DHT22;4206;48.634;9.516;2023-03-01T11:11:13;15.50;79.90
8338;DHT22;4206;48.634;9.516;2023-03-01T11:13:59;17.10;79.90
8338;DHT22;4206;48.634;9.516;2023-03-01T11:16:29;16.20;79.80
8338;DHT22;4206;48.634;9.516;2023-03-01T11:24:17;14.60;78.90
8338;DHT22;4206;48.634;9.516;2023-03-01T11:26:51;15.00;81.40
8338;DHT22;4206;48.634;9.516;2023-03-01T11:29:29;15.10;82.10
8338;DHT22;4206;48.634;9.516;2023-03-01T11:32:15;15.10;80.50
8338;DHT22;4206;48.634;9.516;2023-03-01T11:34:50;15.30;81.90
8338;DHT22;4206;48.634;9.516;2023-03-01T11:37:40;14.70;80.40
8338;DHT22;4206;48.634;9.516;2023-03-01T11:40:24;14.90;82.00
8338;DHT22;4206;48.634;9.516;2023-03-01T11:54:21;15.80;80.70
8338;DHT22;4206;48.634;9.516;2023-03-01T11:57:09;16.40;78.00
8338;DHT22;4206;48.634;9.516;2023-03-01T11:59:51;16.40;78.30
8338;DHT22;4206;48.634;9.516;2023-03-01T12:02:38;15.50;79.30
8338;DHT22;4206;48.634;9.516;2023-03-01T12:05:20;15.70;78.70
8338;DHT22;4206;48.634;9.516;2023-03-01T12:07:59;15.40;79.00
8338;DHT22;4206;48.634;9.516;2023-03-01T12:10:34;15.70;79.90
8338;DHT22;4206;48.634;9.516;2023-03-01T12:13:12;16.10;79.60
8338;DHT22;4206;48.634;9.516;2023-03-01T12:15:50;16.30;80.40
8338;DHT22;4206;48.634;9.516;2023-03-01T12:24:21;16.90;80.90
8338;DHT22;4206;48.634;9.516;2023-03-01T12:30:25;17.10;76.90
8338;DHT22;4206;48.634;9.516;2023-03-01T12:33:02;17.20;78.60
8338;DHT22;4206;48.634;9.516;2023-03-01T12:38:37;17.60;76.30
8338;DHT22;4206;48.634;9.516;2023-03-01T12:49:30;19.60;74.60
8338;DHT22;4206;48.634;9.516;2023-03-01T12:52:04;19.90;74.70
8338;DHT22;4206;48.634;9.516;2023-03-01T12:54:37;20.50;73.20
8338;DHT22;4206;48.634;9.516;2023-03-01T12:57:28;18.90;73.60
8338;DHT22;4206;48.634;9.516;2023-03-01T13:02:59;18.80;74.10
8338;DHT22;4206;48.634;9.516;2023-03-01T13:11:19;20.00;69.80
8338;DHT22;4206;48.634;9.516;2023-03-01T13:13:48;20.80;70.30
8338;DHT22;4206;48.634;9.516;2023-03-01T13:19:13;20.70;69.70
8338;DHT22;4206;48.634;9.516;2023-03-01T13:21:43;20.80;69.80
8338;DHT22;4206;48.634;9.516;2023-03-01T13:27:11;19.10;70.70
8338;DHT22;4206;48.634;9.516;2023-03-01T13:29:47;19.70;69.40
8338;DHT22;4206;48.634;9.516;2023-03-01T13:32:31;20.30;69.00
8338;DHT22;4206;48.634;9.516;2023-03-01T13:37:45;19.40;70.40
8338;DHT22;4206;48.634;9.516;2023-03-01T13:42:50;20.10;68.80
8338;DHT22;4206;48.634;9.516;2023-03-01T13:45:36;20.30;68.40
8338;DHT22;4206;48.634;9.516;2023-03-01T13:50:45;20.30;67.80
8338;DHT22;4206;48.634;9.516;2023-03-01T13:53:18;20.40;67.60
8338;DHT22;4206;48.634;9.516;2023-03-01T13:55:49;19.70;68.70
8338;DHT22;4206;48.634;9.516;2023-03-01T13:58:28;19.60;68.20
8338;DHT22;4206;48.634;9.516;2023-03-01T14:00:58;18.70;68.50
8338;DHT22;4206;48.634;9.516;2023-03-01T14:03:26;18.10;69.30
8338;DHT22;4206;48.634;9.516;2023-03-01T14:06:12;18.20;70.40
8338;DHT22;4206;48.634;9.516;2023-03-01T14:08:44;19.60;69.00
8338;DHT22;4206;48.634;9.516;2023-03-01T14:24:35;19.00;68.80
8338;DHT22;4206;48.634;9.516;2023-03-01T14:27:11;18.70;68.80
8338;DHT22;4206;48.634;9.516;2023-03-01T14:29:40;18.40;68.10
8338;DHT22;4206;48.634;9.516;2023-03-01T14:34:49;17.60;69.20
8338;DHT22;4206;48.634;9.516;2023-03-01T14:37:24;17.20;70.90
8338;DHT22;4206;48.634;9.516;2023-03-01T14:39:53;17.90;72.20
8338;DHT22;4206;48.634;9.516;2023-03-01T14:42:24;18.10;69.90
8338;DHT22;4206;48.634;9.516;2023-03-01T14:44:55;17.90;70.50
8338;DHT22;4206;48.634;9.516;2023-03-01T14:47:27;18.30;71.50
8338;DHT22;4206;48.634;9.516;2023-03-01T14:50:00;17.60;70.40
8338;DHT22;4206;48.634;9.516;2023-03-01T14:52:35;17.30;71.50
8338;DHT22;4206;48.634;9.516;2023-03-01T14:55:09;17.00;71.20
8338;DHT22;4206;48.634;9.516;2023-03-01T14:57:44;16.60;71.30
8338;DHT22;4206;48.634;9.516;2023-03-01T15:00:22;16.40;72.50
8338;DHT22;4206;48.634;9.516;2023-03-01T15:02:53;16.60;71.50
8338;DHT22;4206;48.634;9.516;2023-03-01T15:05:37;16.10;72.40
8338;DHT22;4206;48.634;9.516;2023-03-01T15:08:06;16.20;72.20
8338;DHT22;4206;48.634;9.516;2023-03-01T15:10:36;15.90;71.80
8338;DHT22;4206;48.634;9.516;2023-03-01T15:13:12;14.80;73.30
8338;DHT22;4206;48.634;9.516;2023-03-01T15:15:44;14.10;74.60
8338;DHT22;4206;48.634;9.516;2023-03-01T15:20:44;13.70;75.00
8338;DHT22;4206;48.634;9.516;2023-03-01T15:25:51;13.00;75.30
8338;DHT22;4206;48.634;9.516;2023-03-01T15:28:28;12.50;77.30
8338;DHT22;4206;48.634;9.516;2023-03-01T15:31:02;11.80;78.70
8338;DHT22;4206;48.634;9.516;2023-03-01T15:33:35;11.60;80.10
8338;DHT22;4206;48.634;9.516;2023-03-01T15:36:35;11.60;79.60
8338;DHT22;4206;48.634;9.516;2023-03-01T15:39:22;11.30;79.40
8338;DHT22;4206;48.634;9.516;2023-03-01T15:41:53;10.70;80.40
8338;DHT22;4206;48.634;9.516;2023-03-01T15:44:33;10.40;81.20
8338;DHT22;4206;48.634;9.516;2023-03-01T15:47:26;10.50;81.50
8338;DHT22;4206;48.634;9.516;2023-03-01T15:49:55;9.80;83.10
8338;DHT22;4206;48.634;9.516;2023-03-01T15:55:18;9.50;85.50
8338;DHT22;4206;48.634;9.516;2023-03-01T15:57:46;9.30;85.90
8338;DHT22;4206;48.634;9.516;2023-03-01T16:00:14;9.10;86.00
8338;DHT22;4206;48.634;9.516;2023-03-01T16:02:43;8.90;86.80
8338;DHT22;4206;48.634;9.516;2023-03-01T16:08:00;8.70;88.00
8338;DHT22;4206;48.634;9.516;2023-03-01T16:10:29;8.40;87.30
8338;DHT22;4206;48.634;9.516;2023-03-01T16:12:59;8.40;88.90
8338;DHT22;4206;48.634;9.516;2023-03-01T16:15:29;8.20;89.70
8338;DHT22;4206;48.634;9.516;2023-03-01T16:17:59;8.20;89.90
8338;DHT22;4206;48.634;9.516;2023-03-01T16:20:28;8.20;90.00
8338;DHT22;4206;48.634;9.516;2023-03-01T16:23:02;8.00;90.10
8338;DHT22;4206;48.634;9.516;2023-03-01T16:25:32;7.70;90.60
8338;DHT22;4206;48.634;9.516;2023-03-01T16:28:00;7.40;90.90
8338;DHT22;4206;48.634;9.516;2023-03-01T16:30:32;7.30;91.20
8338;DHT22;4206;48.634;9.516;2023-03-01T16:33:03;7.20;91.40
8338;DHT22;4206;48.634;9.516;2023-03-01T16:35:54;6.90;92.00
8338;DHT22;4206;48.634;9.516;2023-03-01T16:38:23;6.80;92.20
8338;DHT22;4206;48.634;9.516;2023-03-01T16:40:55;6.60;92.40
8338;DHT22;4206;48.634;9.516;2023-03-01T16:43:22;6.50;92.60
8338;DHT22;4206;48.634;9.516;2023-03-01T16:45:50;6.00;92.80
8338;DHT22;4206;48.634;9.516;2023-03-01T16:48:18;6.20;93.10
8338;DHT22;4206;48.634;9.516;2023-03-01T16:50:58;6.10;93.50
8338;DHT22;4206;48.634;9.516;2023-03-01T16:53:29;6.00;93.70
8338;DHT22;4206;48.634;9.516;2023-03-01T16:55:59;5.90;94.00
8338;DHT22;4206;48.634;9.516;2023-03-01T16:58:26;5.10;94.10
8338;DHT22;4206;48.634;9.516;2023-03-01T17:00:55;5.70;94.50
8338;DHT22;4206;48.634;9.516;2023-03-01T17:03:24;5.60;94.80
8338;DHT22;4206;48.634;9.516;2023-03-01T17:05:53;4.70;94.60
8338;DHT22;4206;48.634;9.516;2023-03-01T17:08:21;5.40;95.30
8338;DHT22;4206;48.634;9.516;2023-03-01T17:10:48;5.80;95.70
8338;DHT22;4206;48.634;9.516;2023-03-01T17:13:15;5.30;95.90
8338;DHT22;4206;48.634;9.516;2023-03-01T17:15:42;5.10;96.00
8338;DHT22;4206;48.634;9.516;2023-03-01T17:18:10;5.10;96.20
8338;DHT22;4206;48.634;9.516;2023-03-01T17:20:38;5.00;96.40
8338;DHT22;4206;48.634;9.516;2023-03-01T17:23:09;4.80;96.60
8338;DHT22;4206;48.634;9.516;2023-03-01T17:25:42;4.70;96.80
8338;DHT22;4206;48.634;9.516;2023-03-01T17:28:12;4.60;97.00
8338;DHT22;4206;48.634;9.516;2023-03-01T17:30:42;4.50;97.30
8338;DHT22;4206;48.634;9.516;2023-03-01T17:33:11;4.20;97.60
8338;DHT22;4206;48.634;9.516;2023-03-01T17:35:38;4.40;98.00
8338;DHT22;4206;48.634;9.516;2023-03-01T17:38:06;4.40;98.10
8338;DHT22;4206;48.634;9.516;2023-03-01T17:40:34;4.40;98.30
8338;DHT22;4206;48.634;9.516;2023-03-01T17:43:02;4.30;98.70
8338;DHT22;4206;48.634;9.516;2023-03-01T17:45:30;4.40;98.80
8338;DHT22;4206;48.634;9.516;2023-03-01T17:47:57;4.30;98.90
8338;DHT22;4206;48.634;9.516;2023-03-01T17:50:24;4.30;99.10
8338;DHT22;4206;48.634;9.516;2023-03-01T17:52:52;4.20;99.50
8338;DHT22;4206;48.634;9.516;2023-03-01T17:55:19;4.00;99.50
8338;DHT22;4206;48.634;9.516;2023-03-01T17:57:47;3.90;99.80
8338;DHT22;4206;48.634;9.516;2023-03-01T18:00:15;3.80;99.90
8338;DHT22;4206;48.634;9.516;2023-03-01T18:02:43;3.80;99.90
8338;DHT22;4206;48.634;9.516;2023-03-01T18:05:11;3.70;99.90
8338;DHT22;4206;48.634;9.516;2023-03-01T18:07:37;3.60;99.90
8338;DHT22;4206;48.634;9.516;2023-03-01T18:10:05;3.60;99.90
8338;DHT22;4206;48.634;9.516;2023-03-01T18:12:33;2.70;99.90
8338;DHT22;4206;48.634;9.516;2023-03-01T18:15:00;3.40;99.90
8338;DHT22;4206;48.634;9.516;2023-03-01T18:17:27;3.30;99.90
8338;DHT22;4206;48.634;9.516;2023-03-01T18:19:55;3.80;99.90
8338;DHT22;4206;48.634;9.516;2023-03-01T18:22:24;3.20;99.90
8338;DHT22;4206;48.634;9.516;2023-03-01T18:24:52;3.20;99.90
8338;DHT22;4206;48.634;9.516;2023-03-01T18:27:19;3.10;99.90
8338;DHT22;4206;48.634;9.516;2023-03-01T18:29:47;3.00;99.90
8338;DHT22;4206;48.634;9.516;2023-03-01T18:32:37;3.00;99.90
8338;DHT22;4206;48.634;9.516;2023-03-01T18:39:31;2.70;99.90
8338;DHT22;4206;48.634;9.516;2023-03-01T18:42:38;3.00;99.90
8338;DHT22;4206;48.634;9.516;2023-03-01T18:46:18;3.00;99.90
8338;DHT22;4206;48.634;9.516;2023-03-01T18:49:14;3.00;99.90
8338;DHT22;4206;48.634;9.516;2023-03-01T18:51:47;3.00;99.90
8338;DHT22;4206;48.634;9.516;2023-03-01T18:54:16;3.00;99.90
8338;DHT22;4206;48.634;9.516;2023-03-01T18:56:44;3.00;99.90
8338;DHT22;4206;48.634;9.516;2023-03-01T18:59:13;3.00;99.90
8338;DHT22;4206;48.634;9.516;2023-03-01T19:01:41;3.00;99.90
8338;DHT22;4206;48.634;9.516;2023-03-01T19:04:10;2.90;99.90
8338;DHT22;4206;48.634;9.516;2023-03-01T19:06:38;2.80;99.90
8338;DHT22;4206;48.634;9.516;2023-03-01T19:09:07;2.80;99.90
8338;DHT22;4206;48.634;9.516;2023-03-01T19:11:39;2.70;99.90
8338;DHT22;4206;48.634;9.516;2023-03-01T19:14:11;2.60;99.90
8338;DHT22;4206;48.634;9.516;2023-03-01T19:16:41;2.50;99.90
8338;DHT22;4206;48.634;9.516;2023-03-01T19:19:09;2.50;99.90
8338;DHT22;4206;48.634;9.516;2023-03-01T19:21:38;2.00;99.90
8338;DHT22;4206;48.634;9.516;2023-03-01T19:24:08;2.40;99.90
8338;DHT22;4206;48.634;9.516;2023-03-01T19:26:37;2.30;99.90
8338;DHT22;4206;48.634;9.516;2023-03-01T19:29:09;2.30;99.90
8338;DHT22;4206;48.634;9.516;2023-03-01T19:31:40;2.30;99.90
8338;DHT22;4206;48.634;9.516;2023-03-01T19:34:07;2.30;99.90
8338;DHT22;4206;48.634;9.516;2023-03-01T19:36:39;2.30;99.90
8338;DHT22;4206;48.634;9.516;2023-03-01T19:39:12;2.30;99.90
8338;DHT22;4206;48.634;9.516;2023-03-01T19:41:40;2.30;99.90
8338;DHT22;4206;48.634;9.516;2023-03-01T19:44:08;2.30;99.90